createdAt,value
2023-02-13T05:01:52.949Z,3.75
2023-02-13T05:06:05.902Z,3.81
2023-02-13T05:10:17.454Z,3.82
2023-02-13T05:14:28.917Z,3.79
2023-02-13T05:18:40.344Z,3.67
2023-02-13T05:23:12.540Z,3.67
2023-02-13T05:27:24.228Z,3.71
2023-02-13T05:31:35.795Z,3.53
2023-02-13T05:35:47.287Z,3.52
2023-02-13T05:39:58.752Z,3.50
2023-02-13T05:44:10.784Z,3.54
2023-02-13T05:48:22.216Z,3.41
2023-02-13T05:52:33.670Z,3.32
2023-02-13T05:56:45.625Z,3.22
2023-02-13T06:01:00.583Z,3.19
2023-02-13T06:05:12.173Z,3.22
2023-02-13T06:09:23.602Z,3.25
2023-02-13T06:13:35.277Z,3.24
2023-02-13T06:17:46.728Z,3.27
2023-02-13T06:21:58.147Z,3.18
2023-02-13T06:26:09.993Z,3.20
2023-02-13T06:30:21.889Z,3.07
2023-02-13T06:34:33.322Z,3.14
2023-02-13T06:38:44.786Z,3.03
2023-02-13T06:42:56.256Z,2.93
2023-02-13T06:47:07.702Z,2.89
2023-02-13T06:51:19.196Z,2.77
2023-02-13T06:55:30.734Z,2.76
2023-02-13T06:59:42.615Z,2.71
2023-02-13T07:03:54.111Z,2.76
2023-02-13T07:08:05.556Z,2.87
2023-02-13T07:12:16.998Z,2.80
2023-02-13T07:16:28.510Z,2.74
2023-02-13T07:20:39.962Z,2.90
2023-02-13T07:24:51.366Z,2.73
2023-02-13T07:29:11.428Z,2.80
2023-02-13T07:33:24.416Z,2.71
2023-02-13T07:37:35.860Z,2.72
2023-02-13T07:41:47.333Z,2.68
2023-02-13T07:46:02.675Z,2.71
2023-02-13T07:50:14.146Z,2.74
2023-02-13T07:54:25.614Z,2.78
2023-02-13T07:58:37.973Z,2.76
2023-02-13T08:02:49.454Z,2.68
2023-02-13T08:07:01.053Z,2.62
2023-02-13T08:11:49.861Z,2.70
2023-02-13T08:16:01.388Z,2.80
2023-02-13T08:20:12.937Z,2.79
2023-02-13T08:24:24.528Z,2.94
2023-02-13T08:28:36.715Z,2.96
2023-02-13T08:32:54.187Z,2.95
2023-02-13T08:37:06.030Z,2.96
2023-02-13T08:41:23.749Z,3.08
2023-02-13T08:45:35.592Z,3.23
2023-02-13T08:49:47.100Z,3.18
2023-02-13T08:53:58.617Z,3.23
2023-02-13T08:58:10.060Z,3.39
2023-02-13T09:02:21.557Z,3.76
2023-02-13T09:06:33.123Z,3.88
2023-02-13T09:10:44.630Z,4.13
2023-02-13T09:14:56.110Z,4.26
2023-02-13T09:19:07.606Z,4.31
2023-02-13T09:23:19.029Z,4.36
2023-02-13T09:27:30.874Z,4.59
2023-02-13T09:31:42.472Z,4.79
2023-02-13T09:35:53.992Z,4.69
2023-02-13T09:40:06.966Z,4.63
2023-02-13T09:44:43.220Z,4.56
2023-02-13T09:48:57.970Z,4.75
2023-02-13T09:53:20.427Z,4.81
2023-02-13T09:57:37.089Z,4.99
2023-02-13T10:01:53.566Z,4.98
2023-02-13T10:06:10.013Z,5.20
2023-02-13T10:10:36.726Z,5.32
2023-02-13T10:15:12.152Z,5.44
2023-02-13T10:19:43.163Z,5.63
2023-02-13T10:24:11.241Z,5.73
2023-02-13T10:28:31.633Z,5.81
2023-02-13T10:32:50.516Z,5.92
2023-02-13T10:37:03.326Z,6.13
2023-02-13T10:41:24.314Z,6.26
2023-02-13T10:46:06.243Z,6.48
2023-02-13T10:50:51.227Z,6.56
2023-02-13T10:55:11.744Z,6.72
2023-02-13T10:59:43.798Z,6.80
2023-02-13T11:04:11.737Z,6.96
2023-02-13T11:08:32.851Z,7.03
2023-02-13T11:12:44.368Z,7.13
2023-02-13T11:17:07.339Z,7.23
2023-02-13T11:21:34.252Z,7.48
2023-02-13T11:26:02.765Z,7.59
2023-02-13T11:30:23.629Z,7.71
2023-02-13T11:34:35.138Z,7.79
2023-02-13T11:38:57.871Z,7.86
2023-02-13T11:43:19.546Z,8.10
2023-02-13T11:47:35.960Z,8.18
2023-02-13T11:51:49.954Z,8.28
2023-02-13T11:56:13.786Z,8.40
2023-02-13T12:00:31.089Z,8.48
2023-02-13T12:04:42.783Z,8.69
2023-02-13T12:08:55.063Z,8.84
2023-02-13T12:13:15.331Z,8.86
2023-02-13T12:17:32.172Z,9.06
2023-02-13T12:21:51.773Z,9.21
2023-02-13T12:26:11.091Z,9.37
2023-02-13T12:30:58.999Z,9.43
2023-02-13T12:35:35.730Z,9.40
2023-02-13T12:40:23.923Z,9.59
2023-02-13T12:45:00.889Z,9.74
2023-02-13T12:49:49.906Z,9.79
2023-02-13T12:54:16.386Z,9.91
2023-02-13T12:58:33.783Z,10.02
2023-02-13T13:02:48.218Z,10.06
2023-02-13T13:07:15.073Z,10.18
2023-02-13T13:11:34.383Z,10.16
2023-02-13T13:15:58.517Z,10.23
2023-02-13T13:20:41.063Z,10.32
2023-02-13T13:25:37.977Z,10.49
2023-02-13T13:29:59.909Z,10.48
2023-02-13T13:34:19.152Z,10.48
2023-02-13T13:38:56.513Z,10.55
2023-02-13T13:43:33.780Z,10.64
2023-02-13T13:48:14.567Z,10.72
2023-02-13T13:52:32.860Z,10.86
2023-02-13T13:56:53.349Z,10.83
2023-02-13T14:01:17.485Z,10.91
2023-02-13T14:05:31.814Z,10.96
2023-02-13T14:09:44.230Z,11.09
2023-02-13T14:13:55.719Z,11.06
2023-02-13T14:18:13.037Z,11.10
2023-02-13T14:22:24.510Z,11.08
2023-02-13T14:26:39.231Z,11.16
2023-02-13T14:30:55.791Z,11.23
2023-02-13T14:35:18.152Z,11.28
2023-02-13T14:39:32.322Z,11.37
2023-02-13T14:43:53.574Z,11.35
2023-02-13T14:48:11.566Z,11.48
2023-02-13T14:52:27.622Z,11.49
2023-02-13T14:56:39.288Z,11.52
2023-02-13T15:00:59.228Z,11.51
2023-02-13T15:05:20.129Z,11.57
2023-02-13T15:09:38.732Z,11.56
2023-02-13T15:13:50.241Z,11.56
2023-02-13T15:18:07.647Z,11.58
2023-02-13T15:22:28.992Z,11.61
2023-02-13T15:26:41.275Z,11.51
2023-02-13T15:30:56.472Z,11.44
2023-02-13T15:35:21.724Z,11.39
2023-02-13T15:39:33.219Z,11.33
2023-02-13T15:43:48.264Z,11.27
2023-02-13T15:47:59.869Z,11.12
2023-02-13T15:52:32.392Z,11.07
2023-02-13T15:56:45.565Z,11.03
2023-02-13T16:01:02.702Z,10.96
2023-02-13T16:05:17.158Z,10.88
2023-02-13T16:09:33.439Z,10.82
2023-02-13T16:14:19.011Z,10.75
2023-02-13T16:18:30.520Z,10.66
2023-02-13T16:22:50.701Z,10.60
2023-02-13T16:27:02.335Z,10.49
2023-02-13T16:31:16.433Z,10.36
2023-02-13T16:35:30.773Z,10.22
2023-02-13T16:39:42.256Z,10.04
2023-02-13T16:43:57.591Z,9.91
2023-02-13T16:48:15.036Z,9.69
2023-02-13T16:52:26.712Z,9.58
2023-02-13T16:56:46.206Z,9.39
2023-02-13T17:00:58.177Z,9.17
2023-02-13T17:05:09.824Z,8.98
2023-02-13T17:09:21.779Z,8.76
2023-02-13T17:13:34.834Z,8.55
2023-02-13T17:17:47.841Z,8.37
2023-02-13T17:21:59.528Z,8.21
2023-02-13T17:26:11.057Z,7.98
2023-02-13T17:30:25.501Z,7.72
2023-02-13T17:34:37.071Z,7.77
2023-02-13T17:38:48.573Z,7.87
2023-02-13T17:43:00.123Z,7.79
2023-02-13T17:47:11.615Z,7.74
2023-02-13T17:51:23.113Z,7.73
2023-02-13T17:55:35.083Z,7.67
2023-02-13T17:59:46.784Z,7.62
2023-02-13T18:03:58.265Z,7.52
2023-02-13T18:08:09.844Z,7.47
2023-02-13T18:12:23.332Z,7.42
2023-02-13T18:16:34.918Z,7.38
2023-02-13T18:20:46.697Z,7.37
2023-02-13T18:24:58.191Z,7.30
2023-02-13T18:29:09.659Z,7.23
2023-02-13T18:33:21.265Z,7.20
2023-02-13T18:37:33.630Z,7.16
2023-02-13T18:41:45.474Z,6.96
2023-02-13T18:45:57.031Z,6.77
2023-02-13T18:50:08.987Z,6.53
2023-02-13T18:54:21.396Z,6.42
2023-02-13T18:58:33.829Z,6.28
2023-02-13T19:02:45.410Z,6.20
2023-02-13T19:06:57.633Z,6.06
2023-02-13T19:11:14.200Z,5.94
2023-02-13T19:15:25.675Z,5.85
2023-02-13T19:19:37.339Z,5.72
2023-02-13T19:23:49.741Z,5.86
2023-02-13T19:28:01.309Z,5.94
2023-02-13T19:32:18.674Z,5.82
2023-02-13T19:36:35.241Z,5.77
2023-02-13T19:40:49.688Z,5.80
2023-02-13T19:45:08.165Z,5.62
2023-02-13T19:49:24.334Z,5.44
2023-02-13T19:53:44.244Z,5.23
2023-02-13T19:57:56.189Z,5.10
2023-02-13T20:02:14.240Z,4.89
2023-02-13T20:06:32.947Z,4.67
2023-02-13T20:10:49.686Z,4.52
2023-02-13T20:15:01.447Z,4.33
2023-02-13T20:19:21.694Z,4.33
2023-02-13T20:23:34.371Z,4.25
2023-02-13T20:27:50.300Z,4.34
2023-02-13T20:32:02.015Z,4.25
2023-02-13T20:36:16.800Z,4.10
2023-02-13T20:40:28.411Z,3.98
2023-02-13T20:44:39.857Z,3.79
2023-02-13T20:48:51.371Z,3.71
2023-02-13T20:53:03.019Z,3.61
2023-02-13T20:57:15.843Z,3.55
2023-02-13T21:01:42.510Z,3.58
2023-02-13T21:06:08.080Z,3.57
2023-02-13T21:10:37.081Z,3.37
2023-02-13T21:14:52.026Z,3.31
2023-02-13T21:19:07.534Z,3.23
2023-02-13T21:23:41.076Z,3.16
2023-02-13T21:27:52.664Z,3.08
2023-02-13T21:32:04.252Z,3.04
2023-02-13T21:36:15.749Z,2.96
2023-02-13T21:40:27.258Z,2.86
2023-02-13T21:44:38.702Z,2.79
2023-02-13T21:49:01.325Z,2.73
2023-02-13T21:53:12.770Z,2.68
2023-02-13T21:57:24.375Z,2.62
2023-02-13T22:01:37.683Z,2.61
2023-02-13T22:05:49.220Z,2.47
2023-02-13T22:10:00.706Z,2.49
2023-02-13T22:14:17.007Z,2.34
2023-02-13T22:18:35.595Z,2.29
2023-02-13T22:22:47.026Z,2.18
2023-02-13T22:26:58.506Z,2.17
